Orchid Ace — 7JDE — position and weather

sailwx.info

Track history (hours):
 
Tides and Currents Weather Stations Pressure Air Temp Water Temp Dewpoint Dewpoint Depression Visibility Wind Speed Wind Dir Waves Ship Positions

Orchid Ace

Last reported at 2014-Jul-25 17:26 UTC. Time now 2014-Jul-31 15:32 UTC.
Position N 38°19' E 148°51'.

Length 200 m; draft 8.5 m.

Type: Cargo ship. MMSI: 432651000.

Date/timePositionNaut miles runAvg speedWind from/ knotsBaromVisibWave heightAir tempDewpointWater temp
2014-Jul-25 17:26N 38°19' E 148°51'38215.3
2014-Jul-24 16:30N 35°31' E 141°43'1716.9
2014-Jul-24 15:30N 35°24' E 141°24'1617.0
2014-Jul-24 14:34N 35°17' E 141°06'1916.9
2014-Jul-24 13:25N 35°08' E 140°45'1816.4
2014-Jul-24 12:21N 35°01' E 140°26'1316.4
2014-Jul-24 11:32N 34°55' E 140°11'1615.8
2014-Jul-24 10:32N 34°48' E 139°54'1414.4
2014-Jul-24 09:33N 34°42' E 139°38'  
Track history (hours):
 
Tides and Currents Weather Stations Pressure Air Temp Water Temp Dewpoint Dewpoint Depression Visibility Wind Speed Wind Dir Waves Ship Positions

Orchid Ace

Last reported at 2014-Jul-25 17:26 UTC. Time now 2014-Jul-31 15:32 UTC.
Position N 38°19' E 148°51'.

Length 200 m; draft 8.5 m.

Type: Cargo ship. MMSI: 432651000.

Date/timePositionNaut miles runAvg speedWind from/ knotsBaromVisibWave heightAir tempDewpointWater temp
2014-Jul-25 17:26N 38°19' E 148°51'38215.3
2014-Jul-24 16:30N 35°31' E 141°43'1716.9
2014-Jul-24 15:30N 35°24' E 141°24'1617.0
2014-Jul-24 14:34N 35°17' E 141°06'1916.9
2014-Jul-24 13:25N 35°08' E 140°45'1816.4
2014-Jul-24 12:21N 35°01' E 140°26'1316.4
2014-Jul-24 11:32N 34°55' E 140°11'1615.8
2014-Jul-24 10:32N 34°48' E 139°54'1414.4
2014-Jul-24 09:33N 34°42' E 139°38'  

Dump ship's entire track history